Time;durP1;ratioP1;P1;durP2;ratioP2;P2;SDS_P1;SDS_P2;PMS_P1;PMS_P2;Temp;Humidity;BMP_temperature;BMP_pressure;BME280_temperature;BME280_humidity;BME280_pressure;Samples;Min_cycle;Max_cycle;Signal;HPM_P1;HPM_P2
2023/04/28 00:02:10;;;;;;;13.90;8.32;;;;;;;9.68;77.45;101032.72;5034732;28;20047;-74
2023/04/28 00:04:35;;;;;;;15.18;7.88;;;;;;;9.62;78.23;101036.69;5045614;28;20044;-73
2023/04/28 00:07:01;;;;;;;13.57;7.18;;;;;;;9.63;79.54;101034.94;5049101;28;20446;-74
2023/04/28 00:09:26;;;;;;;13.57;7.68;;;;;;;9.64;80.29;101044.31;5022990;28;20034;-74
2023/04/28 00:11:52;;;;;;;15.88;7.80;;;;;;;9.65;81.08;101040.78;5035346;28;20043;-73
2023/04/28 00:14:17;;;;;;;15.02;8.27;;;;;;;9.66;81.58;101034.63;5028181;28;20044;-73
2023/04/28 00:16:42;;;;;;;14.50;7.80;;;;;;;9.66;81.56;101039.81;5047796;28;20025;-73
2023/04/28 00:19:08;;;;;;;13.20;7.93;;;;;;;9.65;80.93;101040.78;5017425;28;20711;-73
2023/04/28 00:21:33;;;;;;;14.05;7.88;;;;;;;9.65;80.91;101033.81;5033689;28;20513;-73
2023/04/28 00:23:59;;;;;;;15.63;7.88;;;;;;;9.67;81.22;101033.69;5048808;28;20029;-73
2023/04/28 00:26:24;;;;;;;13.40;7.75;;;;;;;9.67;81.80;101031.91;5029833;28;20375;-73
2023/04/28 00:28:50;;;;;;;15.57;7.60;;;;;;;9.66;82.61;101021.69;5032628;28;20465;-73
2023/04/28 00:31:16;;;;;;;14.95;8.05;;;;;;;9.62;83.08;101015.97;5032910;28;20032;-73
2023/04/28 00:33:42;;;;;;;12.57;7.55;;;;;;;9.58;84.48;101011.25;5013864;28;20482;-74
2023/04/28 00:36:08;;;;;;;15.10;8.68;;;;;;;9.52;85.12;101010.06;5031163;28;20029;-73
2023/04/28 00:38:35;;;;;;;19.20;9.00;;;;;;;9.50;85.46;101006.78;5025689;28;20061;-73
2023/04/28 00:41:01;;;;;;;14.35;8.02;;;;;;;9.49;85.87;101007.75;5017850;28;20060;-73
2023/04/28 00:43:27;;;;;;;15.95;8.35;;;;;;;9.48;85.55;101001.75;5013087;28;20168;-74
2023/04/28 00:45:53;;;;;;;17.60;8.15;;;;;;;9.45;85.90;101007.22;5014209;28;20468;-74
2023/04/28 00:48:19;;;;;;;13.90;8.40;;;;;;;9.46;86.43;101008.03;5013210;28;20033;-74
2023/04/28 00:50:46;;;;;;;14.38;8.27;;;;;;;9.47;86.85;101002.69;5010526;28;20521;-74
2023/04/28 00:53:12;;;;;;;14.82;8.43;;;;;;;9.43;87.45;101000.56;5041497;28;20059;-74
2023/04/28 00:55:38;;;;;;;15.82;8.32;;;;;;;9.40;87.90;100993.91;5026182;28;20034;-74
2023/04/28 00:58:05;;;;;;;14.10;7.55;;;;;;;9.34;88.04;100987.53;5022680;28;20041;-74
2023/04/28 01:00:31;;;;;;;18.20;8.70;;;;;;;9.30;88.57;100985.34;5006667;28;20096;-74
2023/04/28 01:02:57;;;;;;;17.98;8.55;;;;;;;9.30;89.13;100980.97;5006116;28;20025;-74
2023/04/28 01:05:28;;;;;;;16.50;9.13;;;;;;;9.31;90.27;100979.22;5017626;28;20036;-74
2023/04/28 01:07:54;;;;;;;15.90;8.13;;;;;;;9.32;90.89;100983.44;5024982;28;20631;-74
2023/04/28 01:10:20;;;;;;;13.50;8.52;;;;;;;9.31;90.95;100980.03;5026424;28;20071;-74
2023/04/28 01:12:46;;;;;;;17.88;8.35;;;;;;;9.31;90.84;100981.81;5015507;28;20025;-75
2023/04/28 01:15:17;;;;;;;15.23;8.05;;;;;;;9.31;90.69;100985.22;5027597;28;20033;-74
2023/04/28 01:17:45;;;;;;;17.52;8.32;;;;;;;9.30;91.01;100985.34;5025778;28;20033;-74
2023/04/28 01:20:11;;;;;;;13.73;8.20;;;;;;;9.30;91.06;100986.16;5053529;28;20108;-74
2023/04/28 01:22:36;;;;;;;19.13;8.68;;;;;;;9.29;90.83;100984.53;5014757;28;20028;-75
2023/04/28 01:25:02;;;;;;;16.08;8.15;;;;;;;9.30;91.08;100988.75;5021369;28;20091;-75
2023/04/28 01:27:29;;;;;;;13.27;8.27;;;;;;;9.30;91.54;100991.34;5028245;28;20056;-75
2023/04/28 01:29:56;;;;;;;17.27;8.38;;;;;;;9.31;92.09;100990.38;5023786;28;20044;-75
2023/04/28 01:32:22;;;;;;;15.70;8.82;;;;;;;9.31;92.52;100990.38;5028698;28;20025;-75
2023/04/28 01:34:47;;;;;;;17.08;9.27;;;;;;;9.30;93.24;100980.97;5025399;28;20041;-75
2023/04/28 01:37:13;;;;;;;14.35;8.38;;;;;;;9.27;93.58;100968.34;5030149;28;20599;-75
2023/04/28 01:39:38;;;;;;;17.42;9.45;;;;;;;9.24;93.93;100975.56;5012361;28;20046;-75
2023/04/28 01:42:04;;;;;;;26.38;9.88;;;;;;;9.17;93.95;100962.38;5026945;28;20029;-75
2023/04/28 01:44:30;;;;;;;20.42;10.52;;;;;;;9.18;93.72;100952.88;5043049;28;20383;-75
2023/04/28 01:46:55;;;;;;;19.73;10.25;;;;;;;9.09;94.93;100945.00;5013950;28;20029;-74
2023/04/28 01:49:21;;;;;;;21.35;10.65;;;;;;;8.99;96.62;100933.88;5003627;28;20036;-74
2023/04/28 01:51:46;;;;;;;22.08;10.63;;;;;;;8.84;97.84;100927.53;5025386;28;20025;-75
2023/04/28 01:54:12;;;;;;;22.25;10.13;;;;;;;8.71;98.58;100936.41;5029158;28;20499;-75
2023/04/28 01:56:38;;;;;;;21.65;10.45;;;;;;;8.74;99.28;100937.91;5028393;28;20040;-75
2023/04/28 01:59:05;;;;;;;21.92;10.60;;;;;;;8.61;99.81;100935.63;5015272;28;20060;-75
2023/04/28 02:01:33;;;;;;;22.85;10.05;;;;;;;8.63;100.00;100940.66;5017642;28;20032;-75
2023/04/28 02:03:59;;;;;;;18.38;9.32;;;;;;;8.64;100.00;100940.50;5011763;28;20029;-75
2023/04/28 02:06:26;;;;;;;19.75;10.23;;;;;;;8.82;100.00;100935.44;5034989;28;20541;-75
2023/04/28 02:08:51;;;;;;;17.33;10.25;;;;;;;8.92;100.00;100936.19;5013581;28;20474;-74
2023/04/28 02:11:17;;;;;;;20.75;10.40;;;;;;;8.85;100.00;100935.13;5028139;28;20013;-74
2023/04/28 02:13:42;;;;;;;22.98;10.75;;;;;;;8.75;100.00;100948.09;5017007;28;20052;-74
2023/04/28 02:16:08;;;;;;;24.13;10.30;;;;;;;8.74;100.00;100941.31;5030989;28;20103;-74
2023/04/28 02:18:35;;;;;;;20.17;10.60;;;;;;;8.77;100.00;100942.78;5018893;28;20056;-74
2023/04/28 02:21:12;;;;;;;22.70;10.35;;;;;;;8.85;100.00;100942.88;5017619;28;20047;-74
2023/04/28 02:23:39;;;;;;;20.85;10.50;;;;;;;8.85;100.00;100942.09;5052076;28;20044;-74
2023/04/28 02:26:04;;;;;;;19.92;10.05;;;;;;;8.86;100.00;100946.31;5033900;28;20033;-74
2023/04/28 02:28:30;;;;;;;23.27;10.90;;;;;;;8.87;100.00;100941.00;5051655;28;20039;-74
2023/04/28 02:31:10;;;;;;;18.90;10.55;;;;;;;8.89;100.00;100948.59;5035151;28;20025;-74
2023/04/28 02:33:36;;;;;;;17.35;10.52;;;;;;;8.89;100.00;100943.44;5034515;28;20423;-75
2023/04/28 02:36:03;;;;;;;20.40;10.85;;;;;;;8.91;100.00;100941.50;5020140;28;20537;-75
2023/04/28 02:38:29;;;;;;;18.92;9.68;;;;;;;8.93;100.00;100943.03;5017814;28;20029;-74
2023/04/28 02:41:03;;;;;;;17.17;10.23;;;;;;;8.98;100.00;100936.59;4996667;28;20071;-75
2023/04/28 02:43:30;;;;;;;14.95;9.77;;;;;;;9.00;100.00;100940.66;5030666;28;20545;-75
2023/04/28 02:45:56;;;;;;;19.13;11.77;;;;;;;9.07;100.00;100926.22;5021020;28;20068;-75
2023/04/28 02:48:22;;;;;;;18.25;9.68;;;;;;;9.09;100.00;100923.50;5031303;28;20068;-75
2023/04/28 02:50:47;;;;;;;18.23;10.90;;;;;;;9.08;100.00;100909.75;5013248;28;20116;-75
2023/04/28 02:53:13;;;;;;;19.08;10.25;;;;;;;9.11;100.00;100916.41;5011205;28;20516;-75
2023/04/28 02:55:38;;;;;;;21.63;10.32;;;;;;;9.10;100.00;100923.34;5032917;28;20037;-74
2023/04/28 02:58:04;;;;;;;20.30;9.85;;;;;;;9.05;100.00;100928.13;5003171;28;20064;-74
2023/04/28 03:00:29;;;;;;;17.73;9.40;;;;;;;9.01;100.00;100924.22;5020117;28;20025;-75
2023/04/28 03:02:55;;;;;;;17.13;9.13;;;;;;;9.02;100.00;100931.00;4999971;28;20025;-75
2023/04/28 03:05:20;;;;;;;14.13;9.40;;;;;;;8.99;100.00;100923.53;5015526;28;20032;-75
2023/04/28 03:07:46;;;;;;;18.70;9.48;;;;;;;9.02;100.00;100919.84;5013524;28;20745;-74
2023/04/28 03:10:12;;;;;;;18.48;10.63;;;;;;;9.06;100.00;100921.19;5013244;28;20030;-74
2023/04/28 03:12:38;;;;;;;20.38;10.55;;;;;;;9.17;100.00;100905.47;5016914;28;20021;-75
2023/04/28 03:15:07;;;;;;;20.40;10.57;;;;;;;9.18;100.00;100896.75;5017447;28;20407;-74
2023/04/28 03:17:37;;;;;;;20.13;10.45;;;;;;;9.16;100.00;100888.31;5009238;28;20028;-74
2023/04/28 03:20:04;;;;;;;19.98;9.88;;;;;;;9.06;100.00;100893.56;5007961;28;20492;-74
2023/04/28 03:22:30;;;;;;;20.10;10.88;;;;;;;9.07;100.00;100871.09;5033504;28;20108;-75
2023/04/28 03:24:56;;;;;;;19.20;9.93;;;;;;;9.07;100.00;100864.13;5004972;28;20172;-74
2023/04/28 03:27:22;;;;;;;21.48;10.75;;;;;;;9.14;100.00;100867.78;4992221;28;20660;-74
2023/04/28 03:29:47;;;;;;;20.10;10.57;;;;;;;9.12;100.00;100856.75;5015267;28;20088;-75
2023/04/28 03:32:14;;;;;;;17.20;10.23;;;;;;;9.05;100.00;100860.06;5012253;28;20025;-74
2023/04/28 03:34:39;;;;;;;18.35;9.85;;;;;;;8.98;100.00;100857.22;5012863;28;20036;-75
2023/04/28 03:37:06;;;;;;;18.98;10.73;;;;;;;9.03;100.00;100849.06;5008231;28;20222;-74
2023/04/28 03:39:31;;;;;;;18.65;10.05;;;;;;;9.11;100.00;100838.78;5013453;28;20048;-74
2023/04/28 03:41:57;;;;;;;20.52;11.27;;;;;;;9.10;100.00;100829.41;5030272;28;20497;-74
2023/04/28 03:44:48;;;;;;;19.08;11.02;;;;;;;9.07;100.00;100809.81;5020164;28;20446;-75
2023/04/28 03:47:14;;;;;;;21.23;10.98;;;;;;;9.03;100.00;100810.25;5015544;28;20037;-74
2023/04/28 03:49:41;;;;;;;17.42;11.25;;;;;;;9.16;100.00;100801.16;5013026;28;20031;-74
2023/04/28 03:52:06;;;;;;;23.38;12.02;;;;;;;9.18;100.00;100808.00;5031209;28;20033;-74
2023/04/28 03:54:32;;;;;;;20.90;11.30;;;;;;;9.14;100.00;100803.09;5038550;28;20033;-74
2023/04/28 03:56:59;;;;;;;15.93;10.57;;;;;;;9.03;100.00;100807.66;5030516;28;20481;-74
2023/04/28 03:59:25;;;;;;;21.52;10.68;;;;;;;9.01;100.00;100812.97;5017032;28;20041;-74
2023/04/28 04:01:51;;;;;;;18.52;10.60;;;;;;;8.95;100.00;100821.31;5029861;28;20042;-74
2023/04/28 04:04:16;;;;;;;20.58;10.95;;;;;;;8.99;100.00;100824.44;5012810;28;20037;-74
2023/04/28 04:06:42;;;;;;;23.40;10.25;;;;;;;9.10;100.00;100826.81;5034875;28;20024;-74
2023/04/28 04:09:08;;;;;;;23.05;10.48;;;;;;;9.08;100.00;100824.38;5019194;28;20442;-74
2023/04/28 04:11:34;;;;;;;22.90;10.95;;;;;;;9.15;100.00;100834.94;5015070;28;20033;-74
2023/04/28 04:13:59;;;;;;;17.00;10.50;;;;;;;9.10;100.00;100835.41;5045504;28;20033;-74
2023/04/28 04:16:25;;;;;;;20.52;11.15;;;;;;;9.12;100.00;100835.25;5027514;28;20029;-74
2023/04/28 04:18:53;;;;;;;21.05;9.85;;;;;;;9.14;100.00;100836.72;5027163;28;20075;-74
2023/04/28 04:21:22;;;;;;;25.83;10.20;;;;;;;9.12;100.00;100841.25;5032870;28;20414;-74
2023/04/28 04:23:49;;;;;;;21.77;10.48;;;;;;;9.09;100.00;100836.34;5027641;28;20087;-74
2023/04/28 04:26:15;;;;;;;18.38;10.27;;;;;;;9.14;100.00;100825.56;5030728;28;20651;-74
2023/04/28 04:28:40;;;;;;;16.85;10.20;;;;;;;9.12;100.00;100823.13;5026648;28;20025;-74
2023/04/28 04:31:08;;;;;;;20.33;9.73;;;;;;;9.19;100.00;100825.13;5030520;28;20087;-74
2023/04/28 04:33:34;;;;;;;21.50;10.07;;;;;;;9.22;100.00;100824.84;5012672;28;20047;-74
2023/04/28 04:36:00;;;;;;;19.60;10.68;;;;;;;9.09;100.00;100831.16;5014221;28;20055;-74
2023/04/28 04:38:26;;;;;;;19.60;11.15;;;;;;;9.11;100.00;100833.63;4998287;28;20037;-74
2023/04/28 04:40:53;;;;;;;19.90;10.43;;;;;;;9.25;100.00;100829.69;5008101;28;20037;-74
2023/04/28 04:43:18;;;;;;;28.55;11.00;;;;;;;9.20;100.00;100829.34;4992898;28;20037;-74
2023/04/28 04:45:47;;;;;;;15.95;9.68;;;;;;;9.14;100.00;100833.34;5012285;28;20025;-74
2023/04/28 04:48:13;;;;;;;19.73;10.45;;;;;;;9.28;100.00;100830.22;5007128;28;20037;-74
2023/04/28 04:50:40;;;;;;;16.83;10.27;;;;;;;9.37;100.00;100825.97;5008978;28;20028;-73
2023/04/28 04:53:05;;;;;;;21.58;11.05;;;;;;;9.35;100.00;100827.88;4993615;28;20043;-74
2023/04/28 04:55:32;;;;;;;23.55;10.48;;;;;;;9.30;100.00;100830.09;5008243;28;20435;-74
2023/04/28 04:57:58;;;;;;;20.48;10.60;;;;;;;9.18;100.00;100831.28;4993121;28;20036;-74
2023/04/28 05:00:49;;;;;;;20.63;11.73;;;;;;;9.29;100.00;100831.06;5009323;28;20973;-74
2023/04/28 05:03:15;;;;;;;21.90;11.82;;;;;;;9.27;100.00;100827.81;4967734;28;20056;-74
2023/04/28 05:05:41;;;;;;;19.50;11.57;;;;;;;9.36;100.00;100826.91;5009469;28;20029;-74
2023/04/28 05:08:12;;;;;;;19.50;11.60;;;;;;;9.24;100.00;100822.91;5005872;28;20041;-74
2023/04/28 05:10:37;;;;;;;22.05;11.85;;;;;;;9.26;100.00;100813.22;5009028;28;20048;-75
2023/04/28 05:13:03;;;;;;;23.77;12.65;;;;;;;9.15;100.00;100806.50;5009606;28;20029;-74
2023/04/28 05:15:29;;;;;;;24.25;13.02;;;;;;;9.29;100.00;100816.34;4991850;28;20076;-74
2023/04/28 05:18:13;;;;;;;23.80;12.90;;;;;;;9.23;100.00;100814.34;5025985;28;20577;-74
2023/04/28 05:20:39;;;;;;;22.15;14.32;;;;;;;9.25;100.00;100809.84;5009491;28;20033;-74
2023/04/28 05:23:05;;;;;;;22.15;12.65;;;;;;;9.19;100.00;100807.00;5009257;28;20317;-74
2023/04/28 05:25:31;;;;;;;22.38;13.10;;;;;;;9.19;100.00;100805.22;4993962;28;20408;-74
2023/04/28 05:27:57;;;;;;;19.65;12.85;;;;;;;9.18;100.00;100797.63;4990755;28;20033;-74
2023/04/28 05:30:22;;;;;;;25.25;13.93;;;;;;;9.22;100.00;100809.31;4994006;28;20181;-74
2023/04/28 05:32:49;;;;;;;23.88;13.32;;;;;;;9.20;100.00;100803.47;5008389;28;20537;-73
2023/04/28 05:35:14;;;;;;;22.92;12.15;;;;;;;9.21;100.00;100807.69;5006378;28;20029;-74
2023/04/28 05:37:42;;;;;;;17.75;11.38;;;;;;;9.18;100.00;100795.06;5021368;28;20029;-75
2023/04/28 05:40:09;;;;;;;24.58;12.98;;;;;;;9.25;100.00;100803.81;5007316;28;20028;-74
2023/04/28 05:42:34;;;;;;;24.67;13.52;;;;;;;9.21;100.00;100797.31;5030861;28;20025;-74
2023/04/28 05:45:01;;;;;;;25.70;12.60;;;;;;;9.15;100.00;100796.97;5039400;28;20083;-75
2023/04/28 05:47:28;;;;;;;21.05;11.95;;;;;;;9.22;100.00;100793.78;4994806;28;20041;-75
2023/04/28 05:49:54;;;;;;;22.98;12.32;;;;;;;9.23;100.00;100787.63;5008400;28;20045;-74
2023/04/28 05:52:19;;;;;;;23.13;12.10;;;;;;;9.26;100.00;100795.13;5009950;28;20452;-74
2023/04/28 05:57:20;;;;;;;23.73;12.85;;;;;;;9.32;100.00;100785.00;5021530;28;20066;-69
2023/04/28 05:59:46;;;;;;;26.35;10.95;;;;;;;9.47;100.00;100784.47;5009653;28;20041;-68
2023/04/28 06:02:13;;;;;;;21.23;10.02;;;;;;;9.47;100.00;100781.88;5002880;28;20041;-68
2023/04/28 06:04:38;;;;;;;21.27;10.50;;;;;;;9.42;100.00;100782.34;5033644;28;20049;-68
2023/04/28 06:07:04;;;;;;;19.77;12.70;;;;;;;9.37;100.00;100778.56;4993062;28;20029;-69
2023/04/28 06:09:31;;;;;;;22.67;12.50;;;;;;;9.59;100.00;100778.09;4977208;28;20044;-68
2023/04/28 06:11:58;;;;;;;17.45;11.27;;;;;;;9.70;100.00;100779.63;4993301;28;20041;-68
2023/04/28 06:14:25;;;;;;;19.75;11.77;;;;;;;9.68;100.00;100784.97;4991049;28;20041;-69
2023/04/28 06:16:50;;;;;;;20.52;11.57;;;;;;;9.58;100.00;100786.81;5002055;28;20042;-69
2023/04/28 06:19:17;;;;;;;19.33;10.82;;;;;;;9.79;100.00;100791.66;4975273;28;20097;-69
2023/04/28 06:21:44;;;;;;;16.63;9.13;;;;;;;9.73;100.00;100793.09;4987494;28;20045;-69
2023/04/28 06:24:10;;;;;;;14.05;8.65;;;;;;;9.76;100.00;100789.41;4990689;28;20173;-69
2023/04/28 06:26:38;;;;;;;17.05;10.20;;;;;;;9.87;100.00;100777.97;5012245;28;20049;-69
2023/04/28 06:29:03;;;;;;;16.90;9.13;;;;;;;9.85;100.00;100780.72;4975358;28;20049;-69
2023/04/28 06:31:29;;;;;;;18.17;9.45;;;;;;;9.90;100.00;100775.88;5001575;28;20040;-69
2023/04/28 06:33:55;;;;;;;16.98;9.52;;;;;;;10.04;100.00;100766.75;5011617;28;20088;-69
2023/04/28 06:36:21;;;;;;;19.42;9.10;;;;;;;10.04;100.00;100766.75;5023815;28;20037;-68
2023/04/28 06:38:47;;;;;;;17.08;9.75;;;;;;;10.01;100.00;100767.06;4992526;28;20812;-70
2023/04/28 06:41:13;;;;;;;13.90;8.35;;;;;;;10.14;100.00;100775.22;4993315;28;20529;-69
2023/04/28 06:43:40;;;;;;;17.90;8.85;;;;;;;10.12;100.00;100768.59;4989210;28;20049;-68
2023/04/28 06:46:12;;;;;;;19.88;8.93;;;;;;;10.13;100.00;100775.38;4975899;28;20084;-68
2023/04/28 06:48:38;;;;;;;16.10;8.50;;;;;;;10.17;100.00;100779.31;4985728;28;20049;-69
2023/04/28 06:51:04;;;;;;;19.48;8.30;;;;;;;10.26;100.00;100775.78;4989460;28;20038;-69
2023/04/28 06:53:29;;;;;;;21.58;8.98;;;;;;;10.21;100.00;100783.22;4988665;28;20034;-69
2023/04/28 06:55:55;;;;;;;13.60;8.63;;;;;;;10.36;100.00;100785.25;4992904;28;20049;-69
2023/04/28 06:58:21;;;;;;;13.23;8.52;;;;;;;10.36;100.00;100788.66;4973473;28;20049;-69
2023/04/28 07:00:47;;;;;;;18.90;7.88;;;;;;;10.46;100.00;100789.34;4971497;28;20037;-69
2023/04/28 07:03:12;;;;;;;15.48;8.32;;;;;;;10.47;100.00;100795.34;4989422;28;20042;-69
2023/04/28 07:05:38;;;;;;;17.23;8.35;;;;;;;10.50;100.00;100777.69;4989710;28;20037;-69
2023/04/28 07:08:03;;;;;;;22.15;9.75;;;;;;;10.56;100.00;100776.25;4981495;28;20146;-69
2023/04/28 07:10:29;;;;;;;16.50;8.55;;;;;;;10.58;100.00;100779.50;4972538;28;20066;-69
2023/04/28 07:12:54;;;;;;;16.25;9.10;;;;;;;10.66;100.00;100778.72;4977867;28;20038;-69
2023/04/28 07:15:20;;;;;;;15.13;9.15;;;;;;;10.69;100.00;100770.63;4987344;28;20093;-69
2023/04/28 07:17:45;;;;;;;19.23;9.25;;;;;;;10.80;100.00;100769.53;4974421;28;20049;-68
2023/04/28 07:20:14;;;;;;;15.20;8.57;;;;;;;10.87;100.00;100775.72;4974928;28;20022;-68
2023/04/28 07:22:40;;;;;;;15.73;8.85;;;;;;;10.92;100.00;100781.22;4989103;28;20034;-68
2023/04/28 07:25:05;;;;;;;15.98;9.85;;;;;;;10.96;100.00;100773.94;4972784;28;20033;-69
2023/04/28 07:27:31;;;;;;;20.42;9.95;;;;;;;10.94;100.00;100771.50;4989205;28;20038;-69
2023/04/28 07:29:56;;;;;;;24.60;11.45;;;;;;;11.07;100.00;100777.03;4987583;28;20057;-69
2023/04/28 07:32:22;;;;;;;18.00;9.20;;;;;;;11.20;100.00;100783.56;4967402;28;20050;-69
2023/04/28 07:34:48;;;;;;;23.92;11.40;;;;;;;11.25;100.00;100766.53;4972861;28;20475;-69
2023/04/28 07:37:13;;;;;;;21.73;10.15;;;;;;;11.32;100.00;100776.28;4976706;28;20030;-69
2023/04/28 07:39:40;;;;;;;19.17;10.70;;;;;;;11.35;100.00;100761.19;4980745;28;20519;-69
2023/04/28 07:42:06;;;;;;;20.98;10.00;;;;;;;11.30;100.00;100766.88;4970570;28;20085;-68
2023/04/28 07:44:32;;;;;;;22.98;10.85;;;;;;;11.35;100.00;100771.56;5001196;28;20104;-68
2023/04/28 07:47:01;;;;;;;17.00;10.90;;;;;;;11.37;100.00;100766.22;4972459;28;20107;-68
2023/04/28 07:49:30;;;;;;;23.25;11.80;;;;;;;11.42;100.00;100764.75;5005871;28;20041;-69
2023/04/28 07:51:56;;;;;;;18.05;10.65;;;;;;;11.37;100.00;100767.03;4988391;28;20065;-69
2023/04/28 07:54:22;;;;;;;21.05;11.65;;;;;;;11.49;100.00;100762.34;5007671;28;20041;-69
2023/04/28 07:56:48;;;;;;;19.67;10.43;;;;;;;11.69;100.00;100755.81;4973038;28;20522;-68
2023/04/28 07:59:14;;;;;;;23.80;11.45;;;;;;;11.68;100.00;100750.81;4992021;28;20065;-69
2023/04/28 08:01:40;;;;;;;20.48;10.32;;;;;;;11.69;100.00;100755.00;4988352;28;20117;-69
2023/04/28 08:04:05;;;;;;;20.67;11.43;;;;;;;11.68;100.00;100743.81;4988124;28;20519;-69
2023/04/28 08:06:32;;;;;;;18.48;11.25;;;;;;;11.67;100.00;100749.97;4985672;28;20042;-69
2023/04/28 08:08:58;;;;;;;19.95;10.88;;;;;;;11.65;100.00;100745.94;5007770;28;20037;-68
2023/04/28 08:11:23;;;;;;;17.08;10.10;;;;;;;11.71;100.00;100747.06;5008046;28;20087;-69
2023/04/28 08:13:48;;;;;;;21.60;11.23;;;;;;;11.79;100.00;100755.66;5005318;28;20041;-69
2023/04/28 08:16:14;;;;;;;21.60;10.95;;;;;;;11.84;100.00;100748.16;4975408;28;20037;-69
2023/04/28 08:18:40;;;;;;;25.77;11.30;;;;;;;11.82;100.00;100760.50;4985615;28;20466;-69
2023/04/28 08:21:06;;;;;;;21.75;11.57;;;;;;;11.93;100.00;100756.00;5009955;28;20038;-69
2023/04/28 08:23:31;;;;;;;21.70;11.63;;;;;;;12.03;100.00;100751.41;4988239;28;20120;-69
2023/04/28 08:25:57;;;;;;;19.75;10.27;;;;;;;12.04;100.00;100761.63;5011819;28;20037;-69
2023/04/28 08:28:22;;;;;;;23.00;11.30;;;;;;;12.10;100.00;100767.16;5005849;28;20045;-69
2023/04/28 08:30:48;;;;;;;22.25;11.63;;;;;;;12.07;100.00;100769.13;4994163;28;20045;-69
2023/04/28 08:33:13;;;;;;;23.05;11.85;;;;;;;12.13;100.00;100777.19;4990321;28;20118;-69
2023/04/28 08:35:39;;;;;;;20.83;10.75;;;;;;;12.22;100.00;100773.59;5005864;28;20042;-68
2023/04/28 08:38:06;;;;;;;19.42;10.77;;;;;;;12.29;100.00;100779.75;4992594;28;20338;-68
2023/04/28 08:40:31;;;;;;;19.50;10.70;;;;;;;12.38;100.00;100783.97;4990474;28;20041;-69
2023/04/28 08:42:58;;;;;;;19.35;10.65;;;;;;;12.30;100.00;100778.81;5006146;28;20037;-69
2023/04/28 08:45:24;;;;;;;17.30;9.77;;;;;;;12.37;100.00;100774.53;5004664;28;20018;-69
2023/04/28 08:47:51;;;;;;;19.30;10.85;;;;;;;12.41;100.00;100775.00;4986571;28;20673;-69
2023/04/28 08:50:21;;;;;;;21.20;10.95;;;;;;;12.56;100.00;100773.31;4988461;28;20065;-69
2023/04/28 08:52:46;;;;;;;19.88;10.27;;;;;;;12.54;100.00;100769.25;5006848;28;20087;-69
2023/04/28 08:55:13;;;;;;;23.30;10.95;;;;;;;12.56;100.00;100769.91;4975766;28;20034;-69
2023/04/28 08:57:54;;;;;;;21.98;11.65;;;;;;;12.51;100.00;100774.78;5005544;28;20034;-69
2023/04/28 09:00:19;;;;;;;20.77;10.02;;;;;;;12.59;100.00;100766.97;4989696;28;20047;-68
2023/04/28 09:02:45;;;;;;;22.30;11.40;;;;;;;12.52;100.00;100768.63;5004713;28;20037;-69
2023/04/28 09:05:11;;;;;;;22.73;11.73;;;;;;;12.59;100.00;100772.97;4989339;28;20088;-69
2023/04/28 09:07:37;;;;;;;26.65;12.38;;;;;;;12.68;100.00;100770.34;4974333;28;20033;-69
2023/04/28 09:10:16;;;;;;;24.95;12.70;;;;;;;12.69;100.00;100764.16;5008347;28;20072;-68
2023/04/28 09:12:41;;;;;;;21.00;11.82;;;;;;;12.73;100.00;100763.63;5007106;28;20041;-69
2023/04/28 09:15:08;;;;;;;18.25;11.07;;;;;;;12.70;100.00;100765.78;4987867;28;20037;-69
2023/04/28 09:17:48;;;;;;;22.65;13.05;;;;;;;12.83;100.00;100768.66;4990230;28;20029;-69
2023/04/28 09:20:21;;;;;;;21.00;11.63;;;;;;;13.01;100.00;100757.94;4987476;28;20519;-68
2023/04/28 09:22:48;;;;;;;18.35;10.93;;;;;;;13.17;100.00;100755.25;4981354;28;20057;-69
2023/04/28 09:25:14;;;;;;;18.88;11.10;;;;;;;13.15;100.00;100751.22;4991095;28;20026;-69
2023/04/28 09:27:40;;;;;;;20.08;11.75;;;;;;;13.32;100.00;100757.94;5003680;28;20484;-69
2023/04/28 09:30:07;;;;;;;20.02;12.05;;;;;;;13.34;100.00;100761.16;4990545;28;20029;-69
2023/04/28 09:32:32;;;;;;;19.33;11.73;;;;;;;13.42;100.00;100763.69;5005783;28;20113;-69
2023/04/28 09:34:58;;;;;;;19.30;10.82;;;;;;;13.35;100.00;100762.78;4974549;28;20045;-69
2023/04/28 09:37:30;;;;;;;14.93;9.50;;;;;;;13.39;100.00;100766.66;5004323;28;20059;-68
2023/04/28 09:40:02;;;;;;;16.23;9.73;;;;;;;13.34;100.00;100766.38;4991211;28;20100;-69
2023/04/28 09:42:37;;;;;;;18.13;9.20;;;;;;;13.36;100.00;100759.19;4990730;28;20567;-69
2023/04/28 09:45:10;;;;;;;16.98;8.32;;;;;;;13.28;100.00;100759.25;4971341;28;20096;-68
2023/04/28 09:47:46;;;;;;;15.63;9.50;;;;;;;13.36;100.00;100758.41;4991689;28;20045;-69
2023/04/28 09:50:15;;;;;;;15.80;8.98;;;;;;;13.53;100.00;100759.88;5005420;28;20034;-69
2023/04/28 09:52:44;;;;;;;16.52;9.00;;;;;;;13.54;100.00;100755.47;4986180;28;20051;-69
2023/04/28 09:55:11;;;;;;;16.52;9.20;;;;;;;13.48;100.00;100759.59;5008373;28;20038;-69
2023/04/28 09:57:38;;;;;;;13.23;9.25;;;;;;;13.53;100.00;100754.66;5005826;28;20164;-69
2023/04/28 10:00:05;;;;;;;11.60;8.70;;;;;;;13.42;100.00;100758.50;4987967;28;21232;-69
2023/04/28 10:02:32;;;;;;;15.93;9.20;;;;;;;13.57;100.00;100752.53;5005264;28;20511;-69
2023/04/28 10:04:58;;;;;;;14.30;9.55;;;;;;;13.65;100.00;100754.25;4973347;28;20099;-69
2023/04/28 10:07:25;;;;;;;18.90;9.80;;;;;;;13.69;100.00;100756.28;5002068;28;20488;-68
2023/04/28 10:09:51;;;;;;;17.08;10.00;;;;;;;13.78;100.00;100760.44;4989934;28;20046;-69
2023/04/28 10:12:17;;;;;;;17.40;9.68;;;;;;;13.81;100.00;100757.50;4973037;28;20033;-69
2023/04/28 10:14:44;;;;;;;16.42;9.82;;;;;;;13.93;100.00;100757.06;4984849;28;20054;-69
2023/04/28 10:17:10;;;;;;;22.33;10.57;;;;;;;13.95;100.00;100752.47;5010759;28;20042;-69
2023/04/28 10:19:36;;;;;;;15.88;9.65;;;;;;;13.91;100.00;100756.44;5003077;28;20092;-69
2023/04/28 10:22:31;;;;;;;15.50;10.20;;;;;;;13.99;100.00;100748.50;4986850;28;20101;-70
2023/04/28 10:25:12;;;;;;;14.70;9.52;;;;;;;14.11;100.00;100752.31;4985271;28;20046;-70
2023/04/28 10:27:42;;;;;;;11.25;7.72;;;;;;;14.11;100.00;100747.09;5012847;28;20107;-70
2023/04/28 10:30:13;;;;;;;9.88;6.80;;;;;;;14.38;100.00;100753.44;4988969;28;20551;-70
2023/04/28 10:32:39;;;;;;;13.45;7.70;;;;;;;14.34;100.00;100743.56;4989428;28;20099;-70
2023/04/28 10:35:23;;;;;;;13.45;7.38;;;;;;;14.32;100.00;100743.75;5009678;28;20046;-70
2023/04/28 10:38:17;;;;;;;12.10;7.00;;;;;;;14.33;100.00;100747.94;5008647;28;20107;-70
2023/04/28 10:40:44;;;;;;;13.77;8.10;;;;;;;14.36;100.00;100747.59;5012940;28;20125;-70
2023/04/28 10:43:12;;;;;;;12.00;7.55;;;;;;;14.57;100.00;100746.88;4997408;28;22337;-70
2023/04/28 10:45:53;;;;;;;10.73;8.05;;;;;;;14.58;100.00;100737.25;4996873;28;20037;-70
2023/04/28 10:48:20;;;;;;;11.23;7.78;;;;;;;14.81;100.00;100739.72;4994166;28;20038;-70
2023/04/28 10:51:08;;;;;;;13.13;8.80;;;;;;;14.96;100.00;100739.66;4987568;28;20551;-71
2023/04/28 10:53:47;;;;;;;10.80;8.20;;;;;;;15.12;100.00;100734.16;4991611;28;20058;-70
2023/04/28 10:56:25;;;;;;;13.75;8.45;;;;;;;14.96;100.00;100739.66;5006910;28;20034;-70
2023/04/28 10:58:54;;;;;;;11.07;8.18;;;;;;;14.85;100.00;100740.94;4993113;28;20483;-69
2023/04/28 11:03:53;;;;;;;13.43;8.50;;;;;;;14.75;100.00;100740.47;5008929;28;20052;-70
2023/04/28 11:06:25;;;;;;;11.63;8.70;;;;;;;14.95;100.00;100738.84;4987157;28;20121;-71
2023/04/28 11:08:56;;;;;;;12.27;8.48;;;;;;;14.80;100.00;100748.53;4992656;28;20467;-71
2023/04/28 11:11:33;;;;;;;20.08;8.43;;;;;;;14.74;100.00;100744.03;5005695;28;20128;-70
2023/04/28 11:14:17;;;;;;;17.20;11.75;;;;;;;14.86;100.00;100746.97;4994061;28;20522;-70
2023/04/28 11:16:53;;;;;;;18.85;12.32;;;;;;;14.80;100.00;100735.47;4986841;28;20044;-69
2023/04/28 11:19:24;;;;;;;19.30;12.93;;;;;;;14.90;100.00;100735.16;4986111;28;20129;-69